sensor_id;sensor_type;location;lat;lon;timestamp;P1;durP1;ratioP1;P2;durP2;ratioP2
57331;SDS011;43164;50.908;18.092;2024-02-26T00:00:40;9.30;;;4.80;;
57331;SDS011;43164;50.908;18.092;2024-02-26T00:03:08;12.20;;;6.10;;
57331;SDS011;43164;50.908;18.092;2024-02-26T00:05:35;10.60;;;5.30;;
57331;SDS011;43164;50.908;18.092;2024-02-26T00:08:07;11.10;;;5.60;;
57331;SDS011;43164;50.908;18.092;2024-02-26T00:10:36;12.10;;;5.70;;
57331;SDS011;43164;50.908;18.092;2024-02-26T00:13:05;10.30;;;5.60;;
57331;SDS011;43164;50.908;18.092;2024-02-26T00:15:34;12.50;;;5.90;;
57331;SDS011;43164;50.908;18.092;2024-02-26T00:18:02;13.80;;;7.00;;
57331;SDS011;43164;50.908;18.092;2024-02-26T00:20:30;13.20;;;6.20;;
57331;SDS011;43164;50.908;18.092;2024-02-26T00:22:58;14.30;;;5.90;;
57331;SDS011;43164;50.908;18.092;2024-02-26T00:25:26;13.20;;;7.60;;
57331;SDS011;43164;50.908;18.092;2024-02-26T00:27:53;15.20;;;7.60;;
57331;SDS011;43164;50.908;18.092;2024-02-26T00:30:20;15.90;;;8.10;;
57331;SDS011;43164;50.908;18.092;2024-02-26T00:32:49;16.90;;;8.50;;
57331;SDS011;43164;50.908;18.092;2024-02-26T00:35:18;17.70;;;8.70;;
57331;SDS011;43164;50.908;18.092;2024-02-26T00:37:46;15.40;;;8.40;;
57331;SDS011;43164;50.908;18.092;2024-02-26T00:40:15;15.70;;;7.70;;
57331;SDS011;43164;50.908;18.092;2024-02-26T00:42:42;15.10;;;7.80;;
57331;SDS011;43164;50.908;18.092;2024-02-26T00:45:12;13.50;;;6.80;;
57331;SDS011;43164;50.908;18.092;2024-02-26T00:47:50;13.00;;;6.80;;
57331;SDS011;43164;50.908;18.092;2024-02-26T00:50:19;16.30;;;7.00;;
57331;SDS011;43164;50.908;18.092;2024-02-26T00:52:48;16.10;;;7.10;;
57331;SDS011;43164;50.908;18.092;2024-02-26T00:55:16;14.30;;;7.00;;
57331;SDS011;43164;50.908;18.092;2024-02-26T00:57:43;16.20;;;7.30;;
57331;SDS011;43164;50.908;18.092;2024-02-26T01:00:12;13.40;;;6.30;;
57331;SDS011;43164;50.908;18.092;2024-02-26T01:02:39;13.10;;;6.60;;
57331;SDS011;43164;50.908;18.092;2024-02-26T01:05:09;15.70;;;6.70;;
57331;SDS011;43164;50.908;18.092;2024-02-26T01:07:38;14.60;;;6.90;;
57331;SDS011;43164;50.908;18.092;2024-02-26T01:10:06;13.00;;;6.90;;
57331;SDS011;43164;50.908;18.092;2024-02-26T01:12:35;14.30;;;7.10;;
57331;SDS011;43164;50.908;18.092;2024-02-26T01:15:03;14.70;;;6.70;;
57331;SDS011;43164;50.908;18.092;2024-02-26T01:17:31;14.40;;;7.10;;
57331;SDS011;43164;50.908;18.092;2024-02-26T01:19:59;13.60;;;6.40;;
57331;SDS011;43164;50.908;18.092;2024-02-26T01:22:29;13.10;;;6.40;;
57331;SDS011;43164;50.908;18.092;2024-02-26T01:24:56;13.80;;;6.70;;
57331;SDS011;43164;50.908;18.092;2024-02-26T01:27:27;14.40;;;6.60;;
57331;SDS011;43164;50.908;18.092;2024-02-26T01:29:55;14.30;;;7.00;;
57331;SDS011;43164;50.908;18.092;2024-02-26T01:32:23;16.30;;;7.30;;
57331;SDS011;43164;50.908;18.092;2024-02-26T01:34:51;15.80;;;6.20;;
57331;SDS011;43164;50.908;18.092;2024-02-26T01:37:20;14.20;;;6.30;;
57331;SDS011;43164;50.908;18.092;2024-02-26T01:39:48;16.90;;;6.70;;
57331;SDS011;43164;50.908;18.092;2024-02-26T01:42:15;13.90;;;6.60;;
57331;SDS011;43164;50.908;18.092;2024-02-26T01:44:44;13.00;;;6.70;;
57331;SDS011;43164;50.908;18.092;2024-02-26T01:47:11;14.10;;;6.50;;
57331;SDS011;43164;50.908;18.092;2024-02-26T01:49:40;14.60;;;6.80;;
57331;SDS011;43164;50.908;18.092;2024-02-26T01:52:08;14.20;;;6.60;;
57331;SDS011;43164;50.908;18.092;2024-02-26T01:54:37;13.10;;;6.80;;
57331;SDS011;43164;50.908;18.092;2024-02-26T01:57:07;15.60;;;6.80;;
57331;SDS011;43164;50.908;18.092;2024-02-26T01:59:36;13.50;;;6.20;;
57331;SDS011;43164;50.908;18.092;2024-02-26T02:02:05;13.60;;;6.20;;
57331;SDS011;43164;50.908;18.092;2024-02-26T02:04:34;14.90;;;6.60;;
57331;SDS011;43164;50.908;18.092;2024-02-26T02:07:02;12.80;;;6.40;;
57331;SDS011;43164;50.908;18.092;2024-02-26T02:09:30;14.50;;;6.80;;
57331;SDS011;43164;50.908;18.092;2024-02-26T02:12:00;13.90;;;6.80;;
57331;SDS011;43164;50.908;18.092;2024-02-26T02:14:29;12.90;;;6.10;;
57331;SDS011;43164;50.908;18.092;2024-02-26T02:16:59;14.60;;;6.70;;
57331;SDS011;43164;50.908;18.092;2024-02-26T02:19:27;13.10;;;6.30;;
57331;SDS011;43164;50.908;18.092;2024-02-26T02:21:56;12.10;;;6.00;;
57331;SDS011;43164;50.908;18.092;2024-02-26T02:24:23;11.60;;;5.70;;
57331;SDS011;43164;50.908;18.092;2024-02-26T02:26:51;13.10;;;5.90;;
57331;SDS011;43164;50.908;18.092;2024-02-26T02:29:18;12.00;;;6.30;;
57331;SDS011;43164;50.908;18.092;2024-02-26T02:31:45;14.30;;;7.20;;
57331;SDS011;43164;50.908;18.092;2024-02-26T02:34:15;16.50;;;7.70;;
57331;SDS011;43164;50.908;18.092;2024-02-26T02:36:51;14.40;;;7.30;;
57331;SDS011;43164;50.908;18.092;2024-02-26T02:39:21;15.50;;;7.30;;
57331;SDS011;43164;50.908;18.092;2024-02-26T02:41:48;15.20;;;8.10;;
57331;SDS011;43164;50.908;18.092;2024-02-26T02:44:19;14.80;;;7.20;;
57331;SDS011;43164;50.908;18.092;2024-02-26T02:46:47;14.80;;;6.60;;
57331;SDS011;43164;50.908;18.092;2024-02-26T02:49:15;16.20;;;7.50;;
57331;SDS011;43164;50.908;18.092;2024-02-26T02:51:42;12.90;;;6.70;;
57331;SDS011;43164;50.908;18.092;2024-02-26T02:54:10;14.40;;;6.70;;
57331;SDS011;43164;50.908;18.092;2024-02-26T02:56:38;15.00;;;7.80;;
57331;SDS011;43164;50.908;18.092;2024-02-26T02:59:04;14.70;;;7.80;;
57331;SDS011;43164;50.908;18.092;2024-02-26T03:01:35;14.10;;;8.10;;
57331;SDS011;43164;50.908;18.092;2024-02-26T03:04:03;16.50;;;7.90;;
57331;SDS011;43164;50.908;18.092;2024-02-26T03:06:34;15.40;;;7.70;;
57331;SDS011;43164;50.908;18.092;2024-02-26T03:09:01;17.50;;;9.10;;
57331;SDS011;43164;50.908;18.092;2024-02-26T03:11:33;15.70;;;8.70;;
57331;SDS011;43164;50.908;18.092;2024-02-26T03:14:02;14.20;;;7.80;;
57331;SDS011;43164;50.908;18.092;2024-02-26T03:16:34;15.50;;;8.40;;
57331;SDS011;43164;50.908;18.092;2024-02-26T03:19:03;15.20;;;7.30;;
57331;SDS011;43164;50.908;18.092;2024-02-26T03:21:31;16.20;;;7.40;;
57331;SDS011;43164;50.908;18.092;2024-02-26T03:23:59;14.10;;;8.00;;
57331;SDS011;43164;50.908;18.092;2024-02-26T03:26:27;14.60;;;7.90;;
57331;SDS011;43164;50.908;18.092;2024-02-26T03:28:59;17.60;;;9.60;;
57331;SDS011;43164;50.908;18.092;2024-02-26T03:31:28;17.60;;;9.60;;
57331;SDS011;43164;50.908;18.092;2024-02-26T03:33:59;17.30;;;10.30;;
57331;SDS011;43164;50.908;18.092;2024-02-26T03:36:27;17.70;;;10.10;;
57331;SDS011;43164;50.908;18.092;2024-02-26T03:38:55;16.40;;;9.90;;
57331;SDS011;43164;50.908;18.092;2024-02-26T03:41:22;17.20;;;9.90;;
57331;SDS011;43164;50.908;18.092;2024-02-26T03:43:50;16.50;;;10.00;;
57331;SDS011;43164;50.908;18.092;2024-02-26T03:46:19;17.70;;;10.00;;
57331;SDS011;43164;50.908;18.092;2024-02-26T03:48:46;15.50;;;8.70;;
57331;SDS011;43164;50.908;18.092;2024-02-26T03:51:16;15.50;;;8.70;;
57331;SDS011;43164;50.908;18.092;2024-02-26T03:53:43;16.30;;;9.30;;
57331;SDS011;43164;50.908;18.092;2024-02-26T03:56:12;14.30;;;7.70;;
57331;SDS011;43164;50.908;18.092;2024-02-26T03:58:42;14.20;;;8.30;;
57331;SDS011;43164;50.908;18.092;2024-02-26T04:01:10;13.70;;;8.50;;
57331;SDS011;43164;50.908;18.092;2024-02-26T04:03:38;17.20;;;9.70;;
57331;SDS011;43164;50.908;18.092;2024-02-26T04:06:10;14.40;;;8.60;;
57331;SDS011;43164;50.908;18.092;2024-02-26T04:08:40;15.30;;;9.80;;
57331;SDS011;43164;50.908;18.092;2024-02-26T04:11:08;15.30;;;8.50;;
57331;SDS011;43164;50.908;18.092;2024-02-26T04:13:36;17.20;;;9.50;;
57331;SDS011;43164;50.908;18.092;2024-02-26T04:16:09;16.60;;;8.90;;
57331;SDS011;43164;50.908;18.092;2024-02-26T04:18:38;13.90;;;8.20;;
57331;SDS011;43164;50.908;18.092;2024-02-26T04:21:07;15.90;;;8.80;;
57331;SDS011;43164;50.908;18.092;2024-02-26T04:23:35;15.10;;;8.50;;
57331;SDS011;43164;50.908;18.092;2024-02-26T04:26:04;15.80;;;9.00;;
57331;SDS011;43164;50.908;18.092;2024-02-26T04:28:33;16.50;;;9.70;;
57331;SDS011;43164;50.908;18.092;2024-02-26T04:31:00;16.60;;;9.40;;
57331;SDS011;43164;50.908;18.092;2024-02-26T04:33:29;17.90;;;10.80;;
57331;SDS011;43164;50.908;18.092;2024-02-26T04:35:57;15.10;;;8.70;;
57331;SDS011;43164;50.908;18.092;2024-02-26T04:38:27;13.60;;;8.60;;
57331;SDS011;43164;50.908;18.092;2024-02-26T04:40:56;16.00;;;9.50;;
57331;SDS011;43164;50.908;18.092;2024-02-26T04:43:23;14.70;;;8.20;;
57331;SDS011;43164;50.908;18.092;2024-02-26T04:45:52;13.30;;;8.00;;
57331;SDS011;43164;50.908;18.092;2024-02-26T04:48:21;13.80;;;7.10;;
57331;SDS011;43164;50.908;18.092;2024-02-26T04:50:50;13.20;;;7.00;;
57331;SDS011;43164;50.908;18.092;2024-02-26T04:53:19;17.30;;;7.70;;
57331;SDS011;43164;50.908;18.092;2024-02-26T04:55:50;11.90;;;6.20;;
57331;SDS011;43164;50.908;18.092;2024-02-26T04:58:18;13.20;;;7.10;;
57331;SDS011;43164;50.908;18.092;2024-02-26T05:00:46;12.20;;;7.00;;
57331;SDS011;43164;50.908;18.092;2024-02-26T05:03:14;13.90;;;7.80;;
57331;SDS011;43164;50.908;18.092;2024-02-26T05:05:46;12.80;;;7.70;;
57331;SDS011;43164;50.908;18.092;2024-02-26T05:08:15;12.70;;;7.00;;
57331;SDS011;43164;50.908;18.092;2024-02-26T05:10:44;12.70;;;7.20;;
57331;SDS011;43164;50.908;18.092;2024-02-26T05:13:12;13.80;;;8.30;;
57331;SDS011;43164;50.908;18.092;2024-02-26T05:15:42;16.40;;;8.70;;
57331;SDS011;43164;50.908;18.092;2024-02-26T05:18:11;15.30;;;8.60;;
57331;SDS011;43164;50.908;18.092;2024-02-26T05:20:48;15.50;;;9.40;;
57331;SDS011;43164;50.908;18.092;2024-02-26T05:23:16;15.80;;;10.20;;
57331;SDS011;43164;50.908;18.092;2024-02-26T05:25:44;18.90;;;10.70;;
57331;SDS011;43164;50.908;18.092;2024-02-26T05:28:18;19.30;;;11.20;;
57331;SDS011;43164;50.908;18.092;2024-02-26T05:30:47;18.30;;;11.50;;
57331;SDS011;43164;50.908;18.092;2024-02-26T05:33:16;17.80;;;11.60;;
57331;SDS011;43164;50.908;18.092;2024-02-26T05:35:46;17.40;;;11.30;;
57331;SDS011;43164;50.908;18.092;2024-02-26T05:38:14;18.50;;;10.40;;
57331;SDS011;43164;50.908;18.092;2024-02-26T05:40:42;20.10;;;11.90;;
57331;SDS011;43164;50.908;18.092;2024-02-26T05:43:13;19.00;;;12.00;;
57331;SDS011;43164;50.908;18.092;2024-02-26T05:45:44;19.90;;;11.60;;
57331;SDS011;43164;50.908;18.092;2024-02-26T05:48:12;20.30;;;12.20;;
57331;SDS011;43164;50.908;18.092;2024-02-26T05:50:40;18.30;;;12.50;;
57331;SDS011;43164;50.908;18.092;2024-02-26T05:53:08;20.60;;;14.10;;
57331;SDS011;43164;50.908;18.092;2024-02-26T05:55:36;19.00;;;12.60;;
57331;SDS011;43164;50.908;18.092;2024-02-26T05:58:05;21.20;;;12.10;;
57331;SDS011;43164;50.908;18.092;2024-02-26T06:00:32;21.40;;;13.00;;
57331;SDS011;43164;50.908;18.092;2024-02-26T06:03:00;19.40;;;12.50;;
57331;SDS011;43164;50.908;18.092;2024-02-26T06:05:28;18.30;;;11.30;;
57331;SDS011;43164;50.908;18.092;2024-02-26T06:08:00;17.70;;;11.10;;
57331;SDS011;43164;50.908;18.092;2024-02-26T06:10:32;17.90;;;10.90;;
57331;SDS011;43164;50.908;18.092;2024-02-26T06:13:00;17.90;;;10.50;;
57331;SDS011;43164;50.908;18.092;2024-02-26T06:15:29;17.70;;;10.80;;
57331;SDS011;43164;50.908;18.092;2024-02-26T06:17:57;16.60;;;10.30;;
57331;SDS011;43164;50.908;18.092;2024-02-26T06:20:24;14.60;;;9.80;;
57331;SDS011;43164;50.908;18.092;2024-02-26T06:22:51;16.10;;;9.30;;
57331;SDS011;43164;50.908;18.092;2024-02-26T06:25:19;16.30;;;9.40;;
57331;SDS011;43164;50.908;18.092;2024-02-26T06:27:46;16.80;;;10.00;;
57331;SDS011;43164;50.908;18.092;2024-02-26T06:30:14;17.30;;;10.00;;
57331;SDS011;43164;50.908;18.092;2024-02-26T06:32:41;15.10;;;9.10;;
57331;SDS011;43164;50.908;18.092;2024-02-26T06:35:10;15.90;;;9.20;;
57331;SDS011;43164;50.908;18.092;2024-02-26T06:37:43;16.20;;;9.60;;
57331;SDS011;43164;50.908;18.092;2024-02-26T06:40:12;16.90;;;9.50;;
57331;SDS011;43164;50.908;18.092;2024-02-26T06:42:39;16.00;;;8.90;;
57331;SDS011;43164;50.908;18.092;2024-02-26T06:45:08;15.10;;;8.00;;
57331;SDS011;43164;50.908;18.092;2024-02-26T06:47:36;14.90;;;7.70;;
57331;SDS011;43164;50.908;18.092;2024-02-26T06:50:04;15.30;;;7.70;;
57331;SDS011;43164;50.908;18.092;2024-02-26T06:52:32;13.50;;;7.00;;
57331;SDS011;43164;50.908;18.092;2024-02-26T06:54:59;16.50;;;6.90;;
57331;SDS011;43164;50.908;18.092;2024-02-26T06:57:27;12.80;;;6.90;;
57331;SDS011;43164;50.908;18.092;2024-02-26T06:59:55;12.80;;;6.90;;
57331;SDS011;43164;50.908;18.092;2024-02-26T07:02:25;11.70;;;6.50;;
57331;SDS011;43164;50.908;18.092;2024-02-26T07:04:52;15.30;;;6.50;;
57331;SDS011;43164;50.908;18.092;2024-02-26T07:07:21;12.20;;;5.80;;
57331;SDS011;43164;50.908;18.092;2024-02-26T07:09:57;10.80;;;5.30;;
57331;SDS011;43164;50.908;18.092;2024-02-26T07:12:25;12.10;;;6.10;;
57331;SDS011;43164;50.908;18.092;2024-02-26T07:14:52;12.50;;;6.10;;
57331;SDS011;43164;50.908;18.092;2024-02-26T07:17:19;11.00;;;5.30;;
57331;SDS011;43164;50.908;18.092;2024-02-26T07:20:11;12.40;;;5.60;;
57331;SDS011;43164;50.908;18.092;2024-02-26T07:22:39;9.70;;;4.80;;
57331;SDS011;43164;50.908;18.092;2024-02-26T07:25:14;11.70;;;5.80;;
57331;SDS011;43164;50.908;18.092;2024-02-26T07:27:42;11.60;;;5.60;;
57331;SDS011;43164;50.908;18.092;2024-02-26T07:30:10;10.40;;;4.70;;
57331;SDS011;43164;50.908;18.092;2024-02-26T07:32:38;10.20;;;5.10;;
57331;SDS011;43164;50.908;18.092;2024-02-26T07:35:10;10.50;;;5.10;;
57331;SDS011;43164;50.908;18.092;2024-02-26T07:37:38;10.00;;;5.10;;
57331;SDS011;43164;50.908;18.092;2024-02-26T07:40:05;10.30;;;4.60;;
57331;SDS011;43164;50.908;18.092;2024-02-26T07:42:38;9.10;;;4.60;;
57331;SDS011;43164;50.908;18.092;2024-02-26T07:45:05;11.60;;;4.70;;
57331;SDS011;43164;50.908;18.092;2024-02-26T07:47:33;12.60;;;5.40;;
57331;SDS011;43164;50.908;18.092;2024-02-26T07:50:02;11.20;;;4.80;;
57331;SDS011;43164;50.908;18.092;2024-02-26T07:52:30;10.80;;;4.80;;
57331;SDS011;43164;50.908;18.092;2024-02-26T07:54:57;10.90;;;4.60;;
57331;SDS011;43164;50.908;18.092;2024-02-26T07:57:25;10.00;;;4.30;;
57331;SDS011;43164;50.908;18.092;2024-02-26T07:59:52;9.90;;;4.50;;
57331;SDS011;43164;50.908;18.092;2024-02-26T08:02:20;11.20;;;4.60;;
57331;SDS011;43164;50.908;18.092;2024-02-26T08:04:48;9.40;;;4.30;;
57331;SDS011;43164;50.908;18.092;2024-02-26T08:07:16;10.00;;;4.20;;
57331;SDS011;43164;50.908;18.092;2024-02-26T08:09:48;8.90;;;4.00;;
57331;SDS011;43164;50.908;18.092;2024-02-26T08:12:15;9.90;;;4.40;;
57331;SDS011;43164;50.908;18.092;2024-02-26T08:14:48;9.50;;;4.00;;
57331;SDS011;43164;50.908;18.092;2024-02-26T08:17:16;8.60;;;3.70;;
57331;SDS011;43164;50.908;18.092;2024-02-26T08:19:44;7.90;;;3.60;;
57331;SDS011;43164;50.908;18.092;2024-02-26T08:22:12;7.60;;;3.40;;
57331;SDS011;43164;50.908;18.092;2024-02-26T08:24:45;9.90;;;3.60;;
57331;SDS011;43164;50.908;18.092;2024-02-26T08:27:11;8.70;;;3.50;;
57331;SDS011;43164;50.908;18.092;2024-02-26T08:29:39;8.90;;;3.20;;
57331;SDS011;43164;50.908;18.092;2024-02-26T08:32:07;8.70;;;3.20;;
57331;SDS011;43164;50.908;18.092;2024-02-26T08:34:34;7.70;;;3.30;;
57331;SDS011;43164;50.908;18.092;2024-02-26T08:37:05;7.00;;;3.10;;
57331;SDS011;43164;50.908;18.092;2024-02-26T08:39:33;5.90;;;2.80;;
57331;SDS011;43164;50.908;18.092;2024-02-26T08:42:00;8.50;;;2.80;;
57331;SDS011;43164;50.908;18.092;2024-02-26T08:44:28;6.50;;;2.70;;
57331;SDS011;43164;50.908;18.092;2024-02-26T08:46:56;6.40;;;2.40;;
57331;SDS011;43164;50.908;18.092;2024-02-26T08:49:23;5.40;;;2.50;;
57331;SDS011;43164;50.908;18.092;2024-02-26T08:51:51;5.20;;;1.90;;
57331;SDS011;43164;50.908;18.092;2024-02-26T08:54:18;7.30;;;2.20;;
57331;SDS011;43164;50.908;18.092;2024-02-26T08:56:45;6.30;;;2.30;;
57331;SDS011;43164;50.908;18.092;2024-02-26T08:59:16;5.20;;;1.90;;
57331;SDS011;43164;50.908;18.092;2024-02-26T09:02:00;5.90;;;1.90;;
57331;SDS011;43164;50.908;18.092;2024-02-26T09:04:28;4.60;;;2.00;;
57331;SDS011;43164;50.908;18.092;2024-02-26T09:06:57;4.40;;;1.90;;
57331;SDS011;43164;50.908;18.092;2024-02-26T09:09:25;5.00;;;1.90;;
57331;SDS011;43164;50.908;18.092;2024-02-26T09:11:53;5.70;;;1.70;;
57331;SDS011;43164;50.908;18.092;2024-02-26T09:14:22;6.00;;;1.80;;
57331;SDS011;43164;50.908;18.092;2024-02-26T09:16:50;4.60;;;1.70;;
57331;SDS011;43164;50.908;18.092;2024-02-26T09:19:19;4.70;;;1.40;;
57331;SDS011;43164;50.908;18.092;2024-02-26T09:21:47;3.90;;;1.50;;
57331;SDS011;43164;50.908;18.092;2024-02-26T09:24:14;4.20;;;1.50;;
57331;SDS011;43164;50.908;18.092;2024-02-26T09:26:43;5.10;;;1.90;;
57331;SDS011;43164;50.908;18.092;2024-02-26T09:29:09;3.20;;;1.40;;
57331;SDS011;43164;50.908;18.092;2024-02-26T09:31:38;3.70;;;1.40;;
57331;SDS011;43164;50.908;18.092;2024-02-26T09:34:08;5.00;;;1.40;;
57331;SDS011;43164;50.908;18.092;2024-02-26T09:36:36;3.90;;;1.40;;
57331;SDS011;43164;50.908;18.092;2024-02-26T09:39:03;3.30;;;1.20;;
57331;SDS011;43164;50.908;18.092;2024-02-26T09:41:31;2.90;;;1.20;;
57331;SDS011;43164;50.908;18.092;2024-02-26T09:43:59;3.50;;;1.30;;
57331;SDS011;43164;50.908;18.092;2024-02-26T09:46:32;3.70;;;1.20;;
57331;SDS011;43164;50.908;18.092;2024-02-26T09:49:00;4.90;;;1.20;;
57331;SDS011;43164;50.908;18.092;2024-02-26T09:51:27;3.90;;;1.40;;
57331;SDS011;43164;50.908;18.092;2024-02-26T09:53:55;3.20;;;1.10;;
57331;SDS011;43164;50.908;18.092;2024-02-26T09:56:22;4.00;;;1.10;;
57331;SDS011;43164;50.908;18.092;2024-02-26T09:58:50;3.50;;;1.30;;
57331;SDS011;43164;50.908;18.092;2024-02-26T10:01:21;3.80;;;1.20;;
57331;SDS011;43164;50.908;18.092;2024-02-26T10:03:56;3.10;;;1.40;;
57331;SDS011;43164;50.908;18.092;2024-02-26T10:06:26;3.40;;;1.10;;
57331;SDS011;43164;50.908;18.092;2024-02-26T10:09:02;2.50;;;1.00;;
57331;SDS011;43164;50.908;18.092;2024-02-26T10:11:35;2.30;;;0.80;;
57331;SDS011;43164;50.908;18.092;2024-02-26T10:14:03;3.80;;;1.20;;
57331;SDS011;43164;50.908;18.092;2024-02-26T10:16:31;3.60;;;1.00;;
57331;SDS011;43164;50.908;18.092;2024-02-26T10:19:01;9.00;;;3.30;;
57331;SDS011;43164;50.908;18.092;2024-02-26T10:21:29;5.30;;;1.40;;
57331;SDS011;43164;50.908;18.092;2024-02-26T10:23:55;4.60;;;1.70;;
57331;SDS011;43164;50.908;18.092;2024-02-26T10:26:23;4.10;;;1.20;;
57331;SDS011;43164;50.908;18.092;2024-02-26T10:28:50;4.20;;;1.00;;
57331;SDS011;43164;50.908;18.092;2024-02-26T10:31:18;4.50;;;1.50;;
57331;SDS011;43164;50.908;18.092;2024-02-26T10:33:45;3.80;;;1.00;;
57331;SDS011;43164;50.908;18.092;2024-02-26T10:36:20;10.20;;;3.60;;
57331;SDS011;43164;50.908;18.092;2024-02-26T10:38:58;4.00;;;1.30;;
57331;SDS011;43164;50.908;18.092;2024-02-26T10:41:34;3.00;;;1.20;;
57331;SDS011;43164;50.908;18.092;2024-02-26T10:44:02;3.10;;;1.20;;
57331;SDS011;43164;50.908;18.092;2024-02-26T10:46:30;4.20;;;1.10;;
57331;SDS011;43164;50.908;18.092;2024-02-26T10:48:57;4.50;;;1.60;;
57331;SDS011;43164;50.908;18.092;2024-02-26T10:51:28;4.20;;;1.50;;
57331;SDS011;43164;50.908;18.092;2024-02-26T10:53:58;4.90;;;1.50;;
57331;SDS011;43164;50.908;18.092;2024-02-26T10:56:30;4.50;;;1.50;;
57331;SDS011;43164;50.908;18.092;2024-02-26T10:59:04;4.80;;;1.40;;
57331;SDS011;43164;50.908;18.092;2024-02-26T11:01:39;5.10;;;1.50;;
57331;SDS011;43164;50.908;18.092;2024-02-26T11:04:08;4.00;;;1.20;;
57331;SDS011;43164;50.908;18.092;2024-02-26T11:06:48;6.40;;;1.70;;
57331;SDS011;43164;50.908;18.092;2024-02-26T11:09:17;3.70;;;1.50;;
57331;SDS011;43164;50.908;18.092;2024-02-26T11:11:45;5.10;;;1.60;;
57331;SDS011;43164;50.908;18.092;2024-02-26T11:14:11;4.70;;;1.80;;
57331;SDS011;43164;50.908;18.092;2024-02-26T11:16:40;5.10;;;1.70;;
57331;SDS011;43164;50.908;18.092;2024-02-26T11:19:08;8.50;;;2.00;;
57331;SDS011;43164;50.908;18.092;2024-02-26T11:21:41;4.50;;;1.40;;
57331;SDS011;43164;50.908;18.092;2024-02-26T11:24:19;4.10;;;1.10;;
57331;SDS011;43164;50.908;18.092;2024-02-26T11:26:48;7.30;;;1.00;;
57331;SDS011;43164;50.908;18.092;2024-02-26T11:29:38;3.30;;;1.00;;
57331;SDS011;43164;50.908;18.092;2024-02-26T11:32:15;3.10;;;0.90;;
57331;SDS011;43164;50.908;18.092;2024-02-26T11:34:43;3.10;;;1.00;;
57331;SDS011;43164;50.908;18.092;2024-02-26T11:37:17;6.00;;;1.30;;
57331;SDS011;43164;50.908;18.092;2024-02-26T11:39:45;4.20;;;0.90;;
57331;SDS011;43164;50.908;18.092;2024-02-26T11:42:16;4.60;;;1.10;;
57331;SDS011;43164;50.908;18.092;2024-02-26T11:44:45;3.90;;;1.10;;
57331;SDS011;43164;50.908;18.092;2024-02-26T11:47:13;3.80;;;0.90;;
57331;SDS011;43164;50.908;18.092;2024-02-26T11:49:57;4.60;;;1.70;;
57331;SDS011;43164;50.908;18.092;2024-02-26T11:52:31;4.90;;;3.00;;
57331;SDS011;43164;50.908;18.092;2024-02-26T11:54:59;15.20;;;13.70;;
57331;SDS011;43164;50.908;18.092;2024-02-26T12:02:52;3.00;;;1.00;;
57331;SDS011;43164;50.908;18.092;2024-02-26T12:05:35;3.00;;;0.90;;
57331;SDS011;43164;50.908;18.092;2024-02-26T12:08:06;2.60;;;0.90;;
57331;SDS011;43164;50.908;18.092;2024-02-26T12:10:35;3.30;;;1.20;;
57331;SDS011;43164;50.908;18.092;2024-02-26T12:13:14;3.60;;;1.10;;
57331;SDS011;43164;50.908;18.092;2024-02-26T12:15:45;4.80;;;1.80;;
57331;SDS011;43164;50.908;18.092;2024-02-26T12:18:41;2.30;;;0.80;;
57331;SDS011;43164;50.908;18.092;2024-02-26T12:21:14;3.50;;;0.90;;
57331;SDS011;43164;50.908;18.092;2024-02-26T12:23:42;3.80;;;1.20;;
57331;SDS011;43164;50.908;18.092;2024-02-26T12:26:12;5.20;;;1.00;;
57331;SDS011;43164;50.908;18.092;2024-02-26T12:28:46;3.30;;;0.90;;
57331;SDS011;43164;50.908;18.092;2024-02-26T12:31:14;2.60;;;0.90;;
57331;SDS011;43164;50.908;18.092;2024-02-26T12:33:42;3.00;;;0.90;;
57331;SDS011;43164;50.908;18.092;2024-02-26T12:39:39;3.20;;;1.00;;
57331;SDS011;43164;50.908;18.092;2024-02-26T12:42:05;3.50;;;1.00;;
57331;SDS011;43164;50.908;18.092;2024-02-26T12:44:37;3.50;;;1.10;;
57331;SDS011;43164;50.908;18.092;2024-02-26T12:47:05;2.50;;;1.00;;
57331;SDS011;43164;50.908;18.092;2024-02-26T12:49:33;3.80;;;0.90;;
57331;SDS011;43164;50.908;18.092;2024-02-26T12:52:01;4.50;;;1.00;;
57331;SDS011;43164;50.908;18.092;2024-02-26T12:54:33;4.60;;;1.00;;
57331;SDS011;43164;50.908;18.092;2024-02-26T12:57:01;3.20;;;1.00;;
57331;SDS011;43164;50.908;18.092;2024-02-26T12:59:29;2.50;;;1.20;;
57331;SDS011;43164;50.908;18.092;2024-02-26T13:01:57;2.90;;;0.90;;
57331;SDS011;43164;50.908;18.092;2024-02-26T13:04:24;3.10;;;1.00;;
57331;SDS011;43164;50.908;18.092;2024-02-26T13:06:53;3.40;;;0.90;;
57331;SDS011;43164;50.908;18.092;2024-02-26T13:09:21;3.10;;;0.80;;
57331;SDS011;43164;50.908;18.092;2024-02-26T13:11:55;3.10;;;1.10;;
57331;SDS011;43164;50.908;18.092;2024-02-26T13:14:23;3.20;;;1.00;;
57331;SDS011;43164;50.908;18.092;2024-02-26T13:16:57;3.40;;;1.10;;
57331;SDS011;43164;50.908;18.092;2024-02-26T13:19:33;3.80;;;1.10;;
57331;SDS011;43164;50.908;18.092;2024-02-26T13:22:07;2.50;;;0.90;;
57331;SDS011;43164;50.908;18.092;2024-02-26T13:24:35;3.50;;;0.80;;
57331;SDS011;43164;50.908;18.092;2024-02-26T13:27:02;2.40;;;1.00;;
57331;SDS011;43164;50.908;18.092;2024-02-26T13:29:31;3.80;;;0.90;;
57331;SDS011;43164;50.908;18.092;2024-02-26T13:31:58;2.70;;;1.00;;
57331;SDS011;43164;50.908;18.092;2024-02-26T13:34:27;3.10;;;1.00;;
57331;SDS011;43164;50.908;18.092;2024-02-26T13:36:57;2.60;;;0.90;;
57331;SDS011;43164;50.908;18.092;2024-02-26T13:39:25;2.20;;;0.80;;
57331;SDS011;43164;50.908;18.092;2024-02-26T13:41:54;3.10;;;0.80;;
57331;SDS011;43164;50.908;18.092;2024-02-26T13:44:21;4.20;;;0.90;;
57331;SDS011;43164;50.908;18.092;2024-02-26T13:46:51;2.00;;;0.80;;
57331;SDS011;43164;50.908;18.092;2024-02-26T13:49:18;1.80;;;0.70;;
57331;SDS011;43164;50.908;18.092;2024-02-26T13:51:46;3.40;;;0.80;;
57331;SDS011;43164;50.908;18.092;2024-02-26T13:54:12;3.10;;;0.90;;
57331;SDS011;43164;50.908;18.092;2024-02-26T13:56:41;3.00;;;0.90;;
57331;SDS011;43164;50.908;18.092;2024-02-26T13:59:08;3.30;;;1.10;;
57331;SDS011;43164;50.908;18.092;2024-02-26T14:01:36;3.90;;;1.00;;
57331;SDS011;43164;50.908;18.092;2024-02-26T14:04:07;2.10;;;0.80;;
57331;SDS011;43164;50.908;18.092;2024-02-26T14:06:36;3.20;;;1.00;;
57331;SDS011;43164;50.908;18.092;2024-02-26T14:09:03;4.10;;;1.20;;
57331;SDS011;43164;50.908;18.092;2024-02-26T14:11:31;4.20;;;0.90;;
57331;SDS011;43164;50.908;18.092;2024-02-26T14:13:58;2.20;;;0.80;;
57331;SDS011;43164;50.908;18.092;2024-02-26T14:16:27;4.30;;;1.10;;
57331;SDS011;43164;50.908;18.092;2024-02-26T14:18:54;2.40;;;0.90;;
57331;SDS011;43164;50.908;18.092;2024-02-26T14:21:21;3.30;;;0.90;;
57331;SDS011;43164;50.908;18.092;2024-02-26T14:23:49;3.10;;;0.80;;
57331;SDS011;43164;50.908;18.092;2024-02-26T14:26:17;3.10;;;0.80;;
57331;SDS011;43164;50.908;18.092;2024-02-26T14:28:44;2.40;;;0.90;;
57331;SDS011;43164;50.908;18.092;2024-02-26T14:31:12;3.40;;;1.00;;
57331;SDS011;43164;50.908;18.092;2024-02-26T14:33:40;3.90;;;1.00;;
57331;SDS011;43164;50.908;18.092;2024-02-26T14:36:07;2.10;;;0.80;;
57331;SDS011;43164;50.908;18.092;2024-02-26T14:38:35;3.20;;;1.00;;
57331;SDS011;43164;50.908;18.092;2024-02-26T14:41:03;2.90;;;1.00;;
57331;SDS011;43164;50.908;18.092;2024-02-26T14:43:30;3.90;;;0.90;;
57331;SDS011;43164;50.908;18.092;2024-02-26T14:45:58;2.60;;;0.80;;